Time,TemperatureF,DewpointF,PressureIn,WindDirection,WindDirectionDegrees,WindSpeedMPH,WindSpeedGustMPH,Humidity,HourlyPrecipIn,Conditions,Clouds,dailyrainin,SoftwareType,DateUTC
2013-01-10 00:04:00,45.0,27.5,30.15,NW,315,8.0,21.0,50,0.00,,,0.00,Weather View 32 v70,2013-01-10 05:04:00,
2013-01-10 00:09:00,46.0,27.4,30.15,SSW,202,9.0,21.0,48,0.00,,,0.00,Weather View 32 v70,2013-01-10 05:09:00,
2013-01-10 00:14:00,45.0,27.5,30.16,West,270,9.0,21.0,50,0.00,,,0.00,Weather View 32 v70,2013-01-10 05:14:00,
2013-01-10 00:19:00,46.0,28.4,30.16,NW,315,5.0,21.0,50,0.00,,,0.00,Weather View 32 v70,2013-01-10 05:19:00,
2013-01-10 00:29:00,46.0,28.4,30.16,NW,315,14.0,23.0,50,0.00,,,0.00,Weather View 32 v70,2013-01-10 05:29:00,
2013-01-10 00:34:00,46.0,28.4,30.17,NW,315,5.0,23.0,50,0.00,,,0.00,Weather View 32 v70,2013-01-10 05:34:00,
2013-01-10 00:40:00,46.0,28.9,30.17,NNW,337,11.0,23.0,51,0.00,,,0.00,Weather View 32 v70,2013-01-10 05:40:00,
2013-01-10 00:44:00,46.0,28.4,30.18,NW,315,9.0,23.0,50,0.00,,,0.00,Weather View 32 v70,2013-01-10 05:44:00,
2013-01-10 00:49:00,46.0,28.4,30.18,North,360,8.0,24.0,50,0.00,,,0.00,Weather View 32 v70,2013-01-10 05:49:00,
2013-01-10 00:59:00,45.0,28.4,30.18,North,360,8.0,26.0,52,0.00,,,0.00,Weather View 32 v70,2013-01-10 05:59:00,
2013-01-10 01:04:00,45.0,28.4,30.20,NNW,337,6.0,26.0,52,0.00,,,0.00,Weather View 32 v70,2013-01-10 06:04:00,
2013-01-10 01:14:00,45.0,27.0,30.20,NNW,337,10.0,28.0,49,0.00,,,0.00,Weather View 32 v70,2013-01-10 06:14:00,
2013-01-10 01:19:00,45.0,27.5,30.20,NNW,337,2.0,31.0,50,0.00,,,0.00,Weather View 32 v70,2013-01-10 06:19:00,
2013-01-10 01:29:00,44.0,25.5,30.21,NW,315,6.0,31.0,48,0.00,,,0.00,Weather View 32 v70,2013-01-10 06:29:00,
2013-01-10 01:34:00,44.0,25.5,30.22,NW,315,5.0,31.0,48,0.00,,,0.00,Weather View 32 v70,2013-01-10 06:34:00,
2013-01-10 01:41:00,45.0,24.9,30.22,North,360,4.0,31.0,45,0.00,,,0.00,Weather View 32 v70,2013-01-10 06:41:00,
2013-01-10 01:49:00,44.0,24.0,30.23,NNW,337,6.0,31.0,45,0.00,,,0.00,Weather View 32 v70,2013-01-10 06:49:00,
2013-01-10 01:54:00,44.0,24.0,30.24,WNW,292,5.0,31.0,45,0.00,,,0.00,Weather View 32 v70,2013-01-10 06:54:00,
2013-01-10 02:04:00,44.0,25.0,30.24,NNW,337,9.0,31.0,47,0.00,,,0.00,Weather View 32 v70,2013-01-10 07:04:00,
2013-01-10 02:09:00,44.0,25.0,30.24,NNW,337,0.0,31.0,47,0.00,,,0.00,Weather View 32 v70,2013-01-10 07:09:00,
2013-01-10 02:14:00,43.0,24.1,30.24,NW,315,0.0,31.0,47,0.00,,,0.00,Weather View 32 v70,2013-01-10 07:14:00,
2013-01-10 02:24:00,43.0,24.1,30.25,North,360,0.0,31.0,47,0.00,,,0.00,Weather View 32 v70,2013-01-10 07:24:00,
2013-01-10 02:29:00,44.0,26.0,30.25,West,270,8.0,31.0,49,0.00,,,0.00,Weather View 32 v70,2013-01-10 07:29:00,
2013-01-10 02:34:00,44.0,26.0,30.24,North,360,2.0,28.0,49,0.00,,,0.00,Weather View 32 v70,2013-01-10 07:34:00,
2013-01-10 02:41:00,43.0,25.1,30.24,NW,315,5.0,28.0,49,0.00,,,0.00,Weather View 32 v70,2013-01-10 07:41:00,
2013-01-10 02:49:00,44.0,26.5,30.25,NW,315,5.0,24.0,50,0.00,,,0.00,Weather View 32 v70,2013-01-10 07:49:00,
2013-01-10 02:59:00,43.0,25.6,30.26,West,270,4.0,24.0,50,0.00,,,0.00,Weather View 32 v70,2013-01-10 07:59:00,
2013-01-10 03:04:00,44.0,26.5,30.27,NNE,22,6.0,24.0,50,0.00,,,0.00,Weather View 32 v70,2013-01-10 08:04:00,
2013-01-10 03:09:00,43.0,26.1,30.27,WSW,247,0.0,24.0,51,0.00,,,0.00,Weather View 32 v70,2013-01-10 08:09:00,
2013-01-10 03:14:00,43.0,26.6,30.26,NW,315,6.0,24.0,52,0.00,,,0.00,Weather View 32 v70,2013-01-10 08:14:00,
2013-01-10 03:24:00,43.0,26.1,30.26,NNW,337,0.0,24.0,51,0.00,,,0.00,Weather View 32 v70,2013-01-10 08:24:00,
2013-01-10 03:29:00,42.0,25.6,30.26,NW,315,3.0,24.0,52,0.00,,,0.00,Weather View 32 v70,2013-01-10 08:29:00,
2013-01-10 03:39:00,42.0,26.5,30.26,NNW,337,12.0,24.0,54,0.00,,,0.00,Weather View 32 v70,2013-01-10 08:39:00,
2013-01-10 03:44:00,43.0,27.5,30.27,North,360,0.0,24.0,54,0.00,,,0.00,Weather View 32 v70,2013-01-10 08:44:00,
2013-01-10 03:54:00,42.0,26.5,30.26,West,270,11.0,24.0,54,0.00,,,0.00,Weather View 32 v70,2013-01-10 08:54:00,
2013-01-10 03:59:00,43.0,27.5,30.26,NNW,337,4.0,24.0,54,0.00,,,0.00,Weather View 32 v70,2013-01-10 08:59:00,
2013-01-10 04:04:00,42.0,26.5,30.26,NNW,337,10.0,24.0,54,0.00,,,0.00,Weather View 32 v70,2013-01-10 09:04:00,
2013-01-10 04:14:00,42.0,27.0,30.26,NW,315,6.0,24.0,55,0.00,,,0.00,Weather View 32 v70,2013-01-10 09:14:00,
2013-01-10 04:19:00,42.0,27.4,30.26,NW,315,6.0,20.0,56,0.00,,,0.00,Weather View 32 v70,2013-01-10 09:19:00,
2013-01-10 04:24:00,42.0,27.4,30.26,NNW,337,2.0,20.0,56,0.00,,,0.00,Weather View 32 v70,2013-01-10 09:24:00,
2013-01-10 04:34:00,41.0,26.5,30.28,ENE,67,0.0,20.0,56,0.00,,,0.00,Weather View 32 v70,2013-01-10 09:34:00,
2013-01-10 04:39:00,41.0,27.8,30.28,SE,135,0.0,20.0,59,0.00,,,0.00,Weather View 32 v70,2013-01-10 09:39:00,
2013-01-10 04:49:00,39.0,26.3,30.29,SE,135,0.0,20.0,60,0.00,,,0.00,Weather View 32 v70,2013-01-10 09:49:00,
2013-01-10 04:54:00,40.0,26.4,30.30,SE,135,0.0,20.0,58,0.00,,,0.00,Weather View 32 v70,2013-01-10 09:54:00,
2013-01-10 04:59:00,39.0,27.5,30.30,East,90,0.0,20.0,63,0.00,,,0.00,Weather View 32 v70,2013-01-10 09:59:00,
2013-01-10 05:09:00,39.0,26.3,30.32,ENE,67,0.0,19.0,60,0.00,,,0.00,Weather View 32 v70,2013-01-10 10:09:00,
2013-01-10 05:14:00,38.0,26.9,30.32,ESE,112,0.0,19.0,64,0.00,,,0.00,Weather View 32 v70,2013-01-10 10:14:00,
2013-01-10 05:24:00,38.0,25.7,30.33,ENE,67,0.0,13.0,61,0.00,,,0.00,Weather View 32 v70,2013-01-10 10:24:00,
2013-01-10 05:29:00,38.0,24.5,30.33,ENE,67,2.0,13.0,58,0.00,,,0.00,Weather View 32 v70,2013-01-10 10:29:00,
2013-01-10 05:34:00,38.0,24.1,30.33,NNE,22,0.0,6.0,57,0.00,,,0.00,Weather View 32 v70,2013-01-10 10:34:00,
2013-01-10 05:43:00,38.0,24.1,30.33,ENE,67,3.0,6.0,57,0.00,,,0.00,Weather View 32 v70,2013-01-10 10:43:00,
2013-01-10 05:49:00,38.0,24.1,30.34,East,90,3.0,6.0,57,0.00,,,0.00,Weather View 32 v70,2013-01-10 10:49:00,
2013-01-10 05:54:00,38.0,23.2,30.35,ENE,67,6.0,7.0,55,0.00,,,0.00,Weather View 32 v70,2013-01-10 10:54:00,
2013-01-10 06:04:00,38.0,23.2,30.36,East,90,5.0,9.0,55,0.00,,,0.00,Weather View 32 v70,2013-01-10 11:04:00,
2013-01-10 06:09:00,38.0,22.8,30.36,ENE,67,5.0,9.0,54,0.00,,,0.00,Weather View 32 v70,2013-01-10 11:09:00,
2013-01-10 06:14:00,38.0,23.2,30.36,NE,45,1.0,9.0,55,0.00,,,0.00,Weather View 32 v70,2013-01-10 11:14:00,
2013-01-10 06:24:00,38.0,24.1,30.38,ENE,67,1.0,9.0,57,0.00,,,0.00,Weather View 32 v70,2013-01-10 11:24:00,
2013-01-10 06:29:00,38.0,24.1,30.38,ENE,67,0.0,9.0,57,0.00,,,0.00,Weather View 32 v70,2013-01-10 11:29:00,
2013-01-10 06:39:00,37.0,24.0,30.38,East,90,0.0,9.0,59,0.00,,,0.00,Weather View 32 v70,2013-01-10 11:39:00,
2013-01-10 06:44:00,37.0,24.0,30.40,East,90,0.0,9.0,59,0.00,,,0.00,Weather View 32 v70,2013-01-10 11:44:00,
2013-01-10 06:49:00,36.0,23.8,30.40,East,90,0.0,9.0,61,0.00,,,0.00,Weather View 32 v70,2013-01-10 11:49:00,
2013-01-10 06:54:00,36.0,24.2,30.41,East,90,0.0,9.0,62,0.00,,,0.00,Weather View 32 v70,2013-01-10 11:54:00,
2013-01-10 06:59:00,35.0,24.0,30.41,South,180,0.0,9.0,64,0.00,,,0.00,Weather View 32 v70,2013-01-10 11:59:00,
2013-01-10 07:09:00,35.0,24.4,30.42,South,180,0.0,8.0,65,0.00,,,0.00,Weather View 32 v70,2013-01-10 12:09:00,
2013-01-10 07:14:00,34.0,23.8,30.42,South,180,0.0,8.0,66,0.00,,,0.00,Weather View 32 v70,2013-01-10 12:14:00,
2013-01-10 07:24:00,34.0,24.5,30.43,ESE,112,0.0,6.0,68,0.00,,,0.00,Weather View 32 v70,2013-01-10 12:24:00,
2013-01-10 07:29:00,34.0,24.9,30.43,ESE,112,0.0,6.0,69,0.00,,,0.00,Weather View 32 v70,2013-01-10 12:29:00,
2013-01-10 07:34:00,33.0,24.3,30.44,SSW,202,0.0,3.0,70,0.00,,,0.00,Weather View 32 v70,2013-01-10 12:34:00,
2013-01-10 07:39:00,33.0,24.6,30.44,SSW,202,0.0,3.0,71,0.00,,,0.00,Weather View 32 v70,2013-01-10 12:39:00,
2013-01-10 07:49:00,33.0,24.6,30.46,NNE,22,0.0,3.0,71,0.00,,,0.00,Weather View 32 v70,2013-01-10 12:49:00,
2013-01-10 07:54:00,34.0,24.9,30.46,NNW,337,3.0,5.0,69,0.00,,,0.00,Weather View 32 v70,2013-01-10 12:54:00,
2013-01-10 07:59:00,36.0,25.0,30.46,NNW,337,0.0,10.0,64,0.00,,,0.00,Weather View 32 v70,2013-01-10 12:59:00,
2013-01-10 08:09:00,38.0,24.9,30.45,West,270,0.0,15.0,59,0.00,,,0.00,Weather View 32 v70,2013-01-10 13:09:00,
2013-01-10 08:14:00,39.0,24.6,30.44,WNW,292,0.0,15.0,56,0.00,,,0.00,Weather View 32 v70,2013-01-10 13:14:00,
2013-01-10 08:19:00,39.0,24.2,30.44,NW,315,10.0,15.0,55,0.00,,,0.00,Weather View 32 v70,2013-01-10 13:19:00,
2013-01-10 08:24:00,40.0,24.2,30.45,North,360,5.0,15.0,53,0.00,,,0.00,Weather View 32 v70,2013-01-10 13:24:00,
2013-01-10 08:29:00,40.0,23.8,30.45,NNW,337,0.0,15.0,52,0.00,,,0.00,Weather View 32 v70,2013-01-10 13:29:00,
2013-01-10 08:39:00,40.0,23.8,30.46,NNW,337,8.0,15.0,52,0.00,,,0.00,Weather View 32 v70,2013-01-10 13:39:00,
2013-01-10 08:44:00,41.0,24.2,30.46,NNW,337,0.0,15.0,51,0.00,,,0.00,Weather View 32 v70,2013-01-10 13:44:00,
2013-01-10 08:54:00,41.0,24.2,30.48,ENE,67,0.0,15.0,51,0.00,,,0.00,Weather View 32 v70,2013-01-10 13:54:00,
2013-01-10 08:59:00,42.0,24.7,30.48,NW,315,1.0,15.0,50,0.00,,,0.00,Weather View 32 v70,2013-01-10 13:59:00,
2013-01-10 09:04:00,42.0,24.7,30.47,East,90,0.0,15.0,50,0.00,,,0.00,Weather View 32 v70,2013-01-10 14:04:00,
2013-01-10 09:14:00,41.0,23.3,30.48,NNW,337,5.0,15.0,49,0.00,,,0.00,Weather View 32 v70,2013-01-10 14:14:00,
2013-01-10 09:19:00,42.0,24.2,30.48,NW,315,7.0,15.0,49,0.00,,,0.00,Weather View 32 v70,2013-01-10 14:19:00,
2013-01-10 09:24:00,42.0,24.2,30.48,North,360,1.0,15.0,49,0.00,,,0.00,Weather View 32 v70,2013-01-10 14:24:00,
2013-01-10 09:29:00,42.0,24.2,30.48,NE,45,0.0,15.0,49,0.00,,,0.00,Weather View 32 v70,2013-01-10 14:29:00,
2013-01-10 09:34:00,42.0,24.2,30.48,NW,315,0.0,14.0,49,0.00,,,0.00,Weather View 32 v70,2013-01-10 14:34:00,
2013-01-10 09:44:00,43.0,24.6,30.48,SW,225,0.0,14.0,48,0.00,,,0.00,Weather View 32 v70,2013-01-10 14:44:00,
2013-01-10 09:49:00,43.0,24.1,30.48,North,360,1.0,14.0,47,0.00,,,0.00,Weather View 32 v70,2013-01-10 14:49:00,
2013-01-10 09:54:00,43.0,24.1,30.49,NNW,337,1.0,14.0,47,0.00,,,0.00,Weather View 32 v70,2013-01-10 14:54:00,
2013-01-10 09:59:00,44.0,25.0,30.49,NW,315,1.0,14.0,47,0.00,,,0.00,Weather View 32 v70,2013-01-10 14:59:00,
2013-01-10 10:04:00,45.0,25.4,30.49,North,360,0.0,14.0,46,0.00,,,0.00,Weather View 32 v70,2013-01-10 15:04:00,
2013-01-10 10:09:00,45.0,24.9,30.49,NNE,22,0.0,14.0,45,0.00,,,0.00,Weather View 32 v70,2013-01-10 15:09:00,
2013-01-10 10:19:00,44.0,25.0,30.48,NNE,22,13.0,17.0,47,0.00,,,0.00,Weather View 32 v70,2013-01-10 15:19:00,
2013-01-10 10:24:00,44.0,24.0,30.49,NW,315,3.0,17.0,45,0.00,,,0.00,Weather View 32 v70,2013-01-10 15:24:00,
2013-01-10 10:29:00,44.0,24.5,30.49,North,360,0.0,17.0,46,0.00,,,0.00,Weather View 32 v70,2013-01-10 15:29:00,
2013-01-10 10:34:00,44.0,25.0,30.49,North,360,0.0,17.0,47,0.00,,,0.00,Weather View 32 v70,2013-01-10 15:34:00,
2013-01-10 10:44:00,44.0,25.0,30.48,NNE,22,11.0,17.0,47,0.00,,,0.00,Weather View 32 v70,2013-01-10 15:44:00,
2013-01-10 10:49:00,43.0,23.1,30.48,North,360,4.0,17.0,45,0.00,,,0.00,Weather View 32 v70,2013-01-10 15:49:00,
2013-01-10 10:54:00,44.0,24.5,30.48,NNW,337,10.0,17.0,46,0.00,,,0.00,Weather View 32 v70,2013-01-10 15:54:00,
2013-01-10 10:59:00,44.0,24.0,30.48,ENE,67,4.0,17.0,45,0.00,,,0.00,Weather View 32 v70,2013-01-10 15:59:00,
2013-01-10 11:09:00,45.0,24.9,30.48,NNE,22,0.0,17.0,45,0.00,,,0.00,Weather View 32 v70,2013-01-10 16:09:00,
2013-01-10 11:14:00,45.0,25.4,30.48,ENE,67,1.0,17.0,46,0.00,,,0.00,Weather View 32 v70,2013-01-10 16:14:00,
2013-01-10 11:19:00,45.0,24.4,30.48,NNE,22,0.0,16.0,44,0.00,,,0.00,Weather View 32 v70,2013-01-10 16:19:00,
2013-01-10 11:24:00,45.0,24.4,30.47,NW,315,5.0,16.0,44,0.00,,,0.00,Weather View 32 v70,2013-01-10 16:24:00,
2013-01-10 11:29:00,45.0,24.9,30.47,North,360,1.0,16.0,45,0.00,,,0.00,Weather View 32 v70,2013-01-10 16:29:00,
2013-01-10 11:34:00,45.0,24.9,30.47,SSW,202,1.0,16.0,45,0.00,,,0.00,Weather View 32 v70,2013-01-10 16:34:00,
2013-01-10 11:39:00,46.0,24.7,30.47,NW,315,0.0,16.0,43,0.00,,,0.00,Weather View 32 v70,2013-01-10 16:39:00,
2013-01-10 11:46:00,45.0,23.8,30.46,ENE,67,0.0,16.0,43,0.00,,,0.00,Weather View 32 v70,2013-01-10 16:46:00,
2013-01-10 11:54:00,47.0,25.6,30.45,North,360,1.0,16.0,43,0.00,,,0.00,Weather View 32 v70,2013-01-10 16:54:00,
2013-01-10 11:59:00,46.0,24.2,30.45,NW,315,6.0,16.0,42,0.00,,,0.00,Weather View 32 v70,2013-01-10 16:59:00,
2013-01-10 12:04:00,46.0,24.2,30.46,East,90,0.0,12.0,42,0.00,,,0.00,Weather View 32 v70,2013-01-10 17:04:00,
2013-01-10 12:09:00,47.0,25.1,30.46,NNW,337,0.0,12.0,42,0.00,,,0.00,Weather View 32 v70,2013-01-10 17:09:00,
2013-01-10 12:14:00,48.0,24.8,30.45,NNE,22,1.0,12.0,40,0.00,,,0.00,Weather View 32 v70,2013-01-10 17:14:00,
2013-01-10 12:19:00,46.0,24.2,30.45,NE,45,1.0,12.0,42,0.00,,,0.00,Weather View 32 v70,2013-01-10 17:19:00,
2013-01-10 12:29:00,46.0,24.2,30.46,North,360,1.0,12.0,42,0.00,,,0.00,Weather View 32 v70,2013-01-10 17:29:00,
2013-01-10 12:34:00,46.0,24.2,30.44,NW,315,10.0,13.0,42,0.00,,,0.00,Weather View 32 v70,2013-01-10 17:34:00,
2013-01-10 12:39:00,45.0,23.8,30.44,NE,45,1.0,14.0,43,0.00,,,0.00,Weather View 32 v70,2013-01-10 17:39:00,
2013-01-10 12:44:00,46.0,24.7,30.45,ENE,67,0.0,14.0,43,0.00,,,0.00,Weather View 32 v70,2013-01-10 17:44:00,
2013-01-10 12:49:00,47.0,25.1,30.45,North,360,0.0,14.0,42,0.00,,,0.00,Weather View 32 v70,2013-01-10 17:49:00,
2013-01-10 12:54:00,46.0,24.2,30.44,North,360,6.0,14.0,42,0.00,,,0.00,Weather View 32 v70,2013-01-10 17:54:00,
2013-01-10 13:04:00,46.0,24.2,30.45,NE,45,7.0,14.0,42,0.00,,,0.00,Weather View 32 v70,2013-01-10 18:04:00,
2013-01-10 13:09:00,47.0,25.6,30.45,NNW,337,0.0,14.0,43,0.00,,,0.00,Weather View 32 v70,2013-01-10 18:09:00,
2013-01-10 13:14:00,47.0,25.1,30.44,North,360,1.0,14.0,42,0.00,,,0.00,Weather View 32 v70,2013-01-10 18:14:00,
2013-01-10 13:19:00,48.0,25.4,30.44,ENE,67,1.0,14.0,41,0.00,,,0.00,Weather View 32 v70,2013-01-10 18:19:00,
2013-01-10 13:24:00,47.0,25.1,30.44,NNW,337,6.0,14.0,42,0.00,,,0.00,Weather View 32 v70,2013-01-10 18:24:00,
2013-01-10 13:29:00,47.0,25.1,30.44,North,360,0.0,14.0,42,0.00,,,0.00,Weather View 32 v70,2013-01-10 18:29:00,
2013-01-10 13:39:00,47.0,25.6,30.44,NNW,337,2.0,14.0,43,0.00,,,0.00,Weather View 32 v70,2013-01-10 18:39:00,
2013-01-10 13:44:00,46.0,24.7,30.45,NNW,337,0.0,14.0,43,0.00,,,0.00,Weather View 32 v70,2013-01-10 18:44:00,
2013-01-10 13:49:00,46.0,24.2,30.45,NNW,337,4.0,14.0,42,0.00,,,0.00,Weather View 32 v70,2013-01-10 18:49:00,
2013-01-10 13:54:00,47.0,24.5,30.44,NNW,337,1.0,14.0,41,0.00,,,0.00,Weather View 32 v70,2013-01-10 18:54:00,
2013-01-10 13:59:00,47.0,25.1,30.44,NE,45,0.0,14.0,42,0.00,,,0.00,Weather View 32 v70,2013-01-10 18:59:00,
2013-01-10 14:04:00,48.0,24.8,30.44,NW,315,1.0,11.0,40,0.00,,,0.00,Weather View 32 v70,2013-01-10 19:04:00,
2013-01-10 14:14:00,48.0,24.8,30.45,NE,45,1.0,11.0,40,0.00,,,0.00,Weather View 32 v70,2013-01-10 19:14:00,
2013-01-10 14:19:00,47.0,24.5,30.45,NE,45,1.0,10.0,41,0.00,,,0.00,Weather View 32 v70,2013-01-10 19:19:00,
2013-01-10 14:24:00,48.0,26.5,30.45,ENE,67,0.0,10.0,43,0.00,,,0.00,Weather View 32 v70,2013-01-10 19:24:00,
2013-01-10 14:29:00,48.0,26.5,30.45,East,90,0.0,10.0,43,0.00,,,0.00,Weather View 32 v70,2013-01-10 19:29:00,
2013-01-10 14:34:00,47.0,25.6,30.45,ENE,67,0.0,8.0,43,0.00,,,0.00,Weather View 32 v70,2013-01-10 19:34:00,
2013-01-10 14:44:00,46.0,25.8,30.46,ENE,67,1.0,8.0,45,0.00,,,0.00,Weather View 32 v70,2013-01-10 19:44:00,
2013-01-10 14:54:00,47.0,25.6,30.46,ENE,67,0.0,7.0,43,0.00,,,0.00,Weather View 32 v70,2013-01-10 19:54:00,
2013-01-10 14:59:00,46.0,25.3,30.46,NNE,22,1.0,7.0,44,0.00,,,0.00,Weather View 32 v70,2013-01-10 19:59:00,
2013-01-10 15:09:00,46.0,25.8,30.46,NNE,22,2.0,7.0,45,0.00,,,0.00,Weather View 32 v70,2013-01-10 20:09:00,
2013-01-10 15:14:00,47.0,26.7,30.46,NNE,22,0.0,7.0,45,0.00,,,0.00,Weather View 32 v70,2013-01-10 20:14:00,
2013-01-10 15:24:00,46.0,25.8,30.47,NE,45,2.0,11.0,45,0.00,,,0.00,Weather View 32 v70,2013-01-10 20:24:00,
2013-01-10 15:29:00,45.0,25.4,30.47,East,90,0.0,11.0,46,0.00,,,0.00,Weather View 32 v70,2013-01-10 20:29:00,
2013-01-10 15:34:00,45.0,25.4,30.47,East,90,0.0,11.0,46,0.00,,,0.00,Weather View 32 v70,2013-01-10 20:34:00,
2013-01-10 15:39:00,45.0,24.9,30.47,ENE,67,0.0,11.0,45,0.00,,,0.00,Weather View 32 v70,2013-01-10 20:39:00,
2013-01-10 15:44:00,45.0,24.9,30.48,East,90,0.0,11.0,45,0.00,,,0.00,Weather View 32 v70,2013-01-10 20:44:00,
2013-01-10 15:49:00,45.0,25.4,30.48,ENE,67,0.0,11.0,46,0.00,,,0.00,Weather View 32 v70,2013-01-10 20:49:00,
2013-01-10 15:59:00,45.0,26.0,30.49,East,90,0.0,11.0,47,0.00,,,0.00,Weather View 32 v70,2013-01-10 20:59:00,
2013-01-10 16:04:00,44.0,25.0,30.49,NE,45,0.0,11.0,47,0.00,,,0.00,Weather View 32 v70,2013-01-10 21:04:00,
2013-01-10 16:09:00,44.0,25.0,30.49,NE,45,0.0,11.0,47,0.00,,,0.00,Weather View 32 v70,2013-01-10 21:09:00,
2013-01-10 16:14:00,44.0,25.5,30.49,NE,45,0.0,11.0,48,0.00,,,0.00,Weather View 32 v70,2013-01-10 21:14:00,
2013-01-10 16:19:00,44.0,26.0,30.49,East,90,0.0,11.0,49,0.00,,,0.00,Weather View 32 v70,2013-01-10 21:19:00,
2013-01-10 16:29:00,43.0,25.1,30.49,NNW,337,0.0,11.0,49,0.00,,,0.00,Weather View 32 v70,2013-01-10 21:29:00,
2013-01-10 16:34:00,43.0,25.1,30.49,NE,45,0.0,9.0,49,0.00,,,0.00,Weather View 32 v70,2013-01-10 21:34:00,
2013-01-10 16:39:00,43.0,25.1,30.49,NE,45,0.0,10.0,49,0.00,,,0.00,Weather View 32 v70,2013-01-10 21:39:00,
2013-01-10 16:44:00,42.0,24.7,30.49,NE,45,0.0,10.0,50,0.00,,,0.00,Weather View 32 v70,2013-01-10 21:44:00,
2013-01-10 16:49:00,42.0,25.2,30.49,NE,45,0.0,10.0,51,0.00,,,0.00,Weather View 32 v70,2013-01-10 21:49:00,
2013-01-10 17:04:00,41.0,25.2,30.50,ENE,67,0.0,10.0,53,0.00,,,0.00,Weather View 32 v70,2013-01-10 22:04:00,
2013-01-10 17:09:00,41.0,25.6,30.50,NE,45,0.0,10.0,54,0.00,,,0.00,Weather View 32 v70,2013-01-10 22:09:00,
2013-01-10 17:14:00,40.0,25.1,30.50,NE,45,0.0,10.0,55,0.00,,,0.00,Weather View 32 v70,2013-01-10 22:14:00,
2013-01-10 17:19:00,40.0,25.5,30.50,ENE,67,0.0,10.0,56,0.00,,,0.00,Weather View 32 v70,2013-01-10 22:19:00,
2013-01-10 17:29:00,40.0,25.5,30.51,ENE,67,0.0,10.0,56,0.00,,,0.00,Weather View 32 v70,2013-01-10 22:29:00,
2013-01-10 17:34:00,40.0,25.5,30.51,ENE,67,0.0,10.0,56,0.00,,,0.00,Weather View 32 v70,2013-01-10 22:34:00,
2013-01-10 17:39:00,40.0,26.4,30.51,NE,45,0.0,10.0,58,0.00,,,0.00,Weather View 32 v70,2013-01-10 22:39:00,
2013-01-10 17:44:00,39.0,25.9,30.51,ENE,67,0.0,10.0,59,0.00,,,0.00,Weather View 32 v70,2013-01-10 22:44:00,
2013-01-10 17:50:00,39.0,25.9,30.51,ENE,67,2.0,6.0,59,0.00,,,0.00,Weather View 32 v70,2013-01-10 22:50:00,
2013-01-10 17:59:00,39.0,26.3,30.52,ENE,67,0.0,6.0,60,0.00,,,0.00,Weather View 32 v70,2013-01-10 22:59:00,
2013-01-10 18:04:00,39.0,26.3,30.52,East,90,0.0,4.0,60,0.00,,,0.00,Weather View 32 v70,2013-01-10 23:04:00,
2013-01-10 18:09:00,39.0,26.7,30.52,East,90,0.0,4.0,61,0.00,,,0.00,Weather View 32 v70,2013-01-10 23:09:00,
2013-01-10 18:14:00,38.0,25.7,30.52,ENE,67,0.0,4.0,61,0.00,,,0.00,Weather View 32 v70,2013-01-10 23:14:00,
2013-01-10 18:19:00,38.0,25.7,30.52,East,90,0.0,3.0,61,0.00,,,0.00,Weather View 32 v70,2013-01-10 23:19:00,
2013-01-10 18:24:00,38.0,25.7,30.52,NE,45,0.0,6.0,61,0.00,,,0.00,Weather View 32 v70,2013-01-10 23:24:00,
2013-01-10 18:29:00,38.0,25.7,30.52,ENE,67,0.0,6.0,61,0.00,,,0.00,Weather View 32 v70,2013-01-10 23:29:00,
2013-01-10 18:39:00,38.0,25.7,30.52,ENE,67,0.0,6.0,61,0.00,,,0.00,Weather View 32 v70,2013-01-10 23:39:00,
2013-01-10 18:44:00,38.0,25.7,30.53,ENE,67,1.0,6.0,61,0.00,,,0.00,Weather View 32 v70,2013-01-10 23:44:00,
2013-01-10 18:49:00,38.0,25.7,30.53,SSW,202,1.0,6.0,61,0.00,,,0.00,Weather View 32 v70,2013-01-10 23:49:00,
2013-01-10 18:54:00,38.0,26.1,30.53,ENE,67,0.0,6.0,62,0.00,,,0.00,Weather View 32 v70,2013-01-10 23:54:00,
2013-01-10 18:59:00,37.0,25.2,30.53,ENE,67,0.0,6.0,62,0.00,,,0.00,Weather View 32 v70,2013-01-10 23:59:00,
2013-01-10 19:09:00,36.0,25.7,30.54,ENE,67,0.0,6.0,66,0.00,,,0.00,Weather View 32 v70,2013-01-11 00:09:00,
2013-01-10 19:19:00,35.0,25.5,30.54,ENE,67,0.0,6.0,68,0.00,,,0.00,Weather View 32 v70,2013-01-11 00:19:00,
2013-01-10 19:24:00,35.0,26.2,30.55,ENE,67,0.0,6.0,70,0.00,,,0.00,Weather View 32 v70,2013-01-11 00:24:00,
2013-01-10 19:29:00,34.0,25.9,30.55,NNW,337,0.0,6.0,72,0.00,,,0.00,Weather View 32 v70,2013-01-11 00:29:00,
2013-01-10 19:34:00,35.0,26.2,30.55,NE,45,0.0,2.0,70,0.00,,,0.00,Weather View 32 v70,2013-01-11 00:34:00,
2013-01-10 19:39:00,35.0,26.2,30.55,NNW,337,0.0,2.0,70,0.00,,,0.00,Weather View 32 v70,2013-01-11 00:39:00,
2013-01-10 19:49:00,34.0,27.2,30.55,SE,135,0.0,1.0,76,0.00,,,0.00,Weather View 32 v70,2013-01-11 00:49:00,
2013-01-10 19:54:00,33.0,26.6,30.56,SE,135,0.0,1.0,77,0.00,,,0.00,Weather View 32 v70,2013-01-11 00:54:00,
2013-01-10 19:59:00,32.0,26.5,30.56,SE,135,0.0,1.0,80,0.00,,,0.00,Weather View 32 v70,2013-01-11 00:59:00,
2013-01-10 20:04:00,32.0,27.1,30.56,SE,135,0.0,1.0,82,0.00,,,0.00,Weather View 32 v70,2013-01-11 01:04:00,
2013-01-10 20:14:00,33.0,27.2,30.56,SE,135,0.0,1.0,79,0.00,,,0.00,Weather View 32 v70,2013-01-11 01:14:00,
2013-01-10 20:24:00,33.0,27.2,30.56,SE,135,0.0,1.0,79,0.00,,,0.00,Weather View 32 v70,2013-01-11 01:24:00,
2013-01-10 20:29:00,32.0,26.8,30.56,SE,135,0.0,1.0,81,0.00,,,0.00,Weather View 32 v70,2013-01-11 01:29:00,
2013-01-10 20:34:00,32.0,28.0,30.56,SE,135,0.0,1.0,85,0.00,,,0.00,Weather View 32 v70,2013-01-11 01:34:00,
2013-01-10 20:39:00,32.0,27.4,30.56,SE,135,0.0,1.0,83,0.00,,,0.00,Weather View 32 v70,2013-01-11 01:39:00,
2013-01-10 20:44:00,31.0,26.7,30.57,SE,135,0.0,1.0,84,0.00,,,0.00,Weather View 32 v70,2013-01-11 01:44:00,
2013-01-10 20:49:00,31.0,26.7,30.57,SE,135,0.0,0.0,84,0.00,,,0.00,Weather View 32 v70,2013-01-11 01:49:00,
2013-01-10 20:59:00,31.0,26.4,30.58,SE,135,0.0,0.0,83,0.00,,,0.00,Weather View 32 v70,2013-01-11 01:59:00,
2013-01-10 21:04:00,31.0,27.0,30.58,SE,135,0.0,0.0,85,0.00,,,0.00,Weather View 32 v70,2013-01-11 02:04:00,
2013-01-10 21:09:00,31.0,27.3,30.58,SE,135,0.0,0.0,86,0.00,,,0.00,Weather View 32 v70,2013-01-11 02:09:00,
2013-01-10 21:14:00,31.0,26.7,30.58,SE,135,0.0,0.0,84,0.00,,,0.00,Weather View 32 v70,2013-01-11 02:14:00,
2013-01-10 21:19:00,31.0,27.0,30.58,SE,135,0.0,0.0,85,0.00,,,0.00,Weather View 32 v70,2013-01-11 02:19:00,
2013-01-10 21:24:00,30.0,26.6,30.58,SE,135,0.0,0.0,87,0.00,,,0.00,Weather View 32 v70,2013-01-11 02:24:00,
2013-01-10 21:34:00,30.0,26.9,30.58,SE,135,0.0,0.0,88,0.00,,,0.00,Weather View 32 v70,2013-01-11 02:34:00,
2013-01-10 21:39:00,30.0,27.4,30.58,SE,135,0.0,0.0,90,0.00,,,0.00,Weather View 32 v70,2013-01-11 02:39:00,
2013-01-10 21:44:00,30.0,27.2,30.59,SE,135,0.0,0.0,89,0.00,,,0.00,Weather View 32 v70,2013-01-11 02:44:00,
2013-01-10 21:52:00,30.0,27.4,30.59,SE,135,0.0,0.0,90,0.00,,,0.00,Weather View 32 v70,2013-01-11 02:52:00,
2013-01-10 21:59:00,29.0,25.9,30.58,SE,135,0.0,0.0,88,0.00,,,0.00,Weather View 32 v70,2013-01-11 02:59:00,
2013-01-10 22:09:00,29.0,27.2,30.60,SE,135,0.0,0.0,93,0.00,,,0.00,Weather View 32 v70,2013-01-11 03:09:00,
2013-01-10 22:14:00,29.0,27.0,30.59,SE,135,0.0,0.0,92,0.00,,,0.00,Weather View 32 v70,2013-01-11 03:14:00,
2013-01-10 22:19:00,28.0,25.7,30.59,SE,135,0.0,0.0,91,0.00,,,0.00,Weather View 32 v70,2013-01-11 03:19:00,
2013-01-10 22:24:00,29.0,28.3,30.59,SE,135,0.0,0.0,97,0.00,,,0.00,Weather View 32 v70,2013-01-11 03:24:00,
2013-01-10 22:34:00,29.0,27.7,30.58,SE,135,0.0,0.0,95,0.00,,,0.00,Weather View 32 v70,2013-01-11 03:34:00,
2013-01-10 22:44:00,29.0,27.5,30.58,SE,135,0.0,0.0,94,0.00,,,0.00,Weather View 32 v70,2013-01-11 03:44:00,
2013-01-10 22:49:00,30.0,28.2,30.58,SE,135,0.0,0.0,93,0.00,,,0.00,Weather View 32 v70,2013-01-11 03:49:00,
2013-01-10 22:54:00,30.0,27.7,30.58,SE,135,0.0,0.0,91,0.00,,,0.00,Weather View 32 v70,2013-01-11 03:54:00,
2013-01-10 22:59:00,30.0,27.4,30.58,ENE,67,0.0,0.0,90,0.00,,,0.00,Weather View 32 v70,2013-01-11 03:59:00,
2013-01-10 23:04:00,30.0,27.4,30.57,ENE,67,0.0,0.0,90,0.00,,,0.00,Weather View 32 v70,2013-01-11 04:04:00,
2013-01-10 23:09:00,29.0,27.2,30.57,ENE,67,0.0,0.0,93,0.00,,,0.00,Weather View 32 v70,2013-01-11 04:09:00,
2013-01-10 23:14:00,29.0,27.0,30.58,ENE,67,0.0,0.0,92,0.00,,,0.00,Weather View 32 v70,2013-01-11 04:14:00,
2013-01-10 23:19:00,29.0,27.2,30.58,ENE,67,0.0,0.0,93,0.00,,,0.00,Weather View 32 v70,2013-01-11 04:19:00,
2013-01-10 23:24:00,28.0,26.5,30.59,ENE,67,0.0,0.0,94,0.00,,,0.00,Weather View 32 v70,2013-01-11 04:24:00,
2013-01-10 23:29:00,28.0,26.8,30.59,ENE,67,0.0,0.0,95,0.00,,,0.00,Weather View 32 v70,2013-01-11 04:29:00,
2013-01-10 23:39:00,27.0,27.0,30.60,ENE,67,0.0,0.0,100,0.00,,,0.00,Weather View 32 v70,2013-01-11 04:39:00,
2013-01-10 23:44:00,27.0,26.3,30.59,ENE,67,0.0,0.0,97,0.00,,,0.00,Weather View 32 v70,2013-01-11 04:44:00,
2013-01-10 23:49:00,27.0,26.0,30.59,ENE,67,0.0,0.0,96,0.00,,,0.00,Weather View 32 v70,2013-01-11 04:49:00,
2013-01-10 23:54:00,27.0,26.3,30.60,ENE,67,0.0,0.0,97,0.00,,,0.00,Weather View 32 v70,2013-01-11 04:54:00,
2013-01-10 23:59:00,27.0,27.0,30.60,ENE,67,0.0,0.0,100,0.00,,,0.00,Weather View 32 v70,2013-01-11 04:59:00,